sensor_id;sensor_type;location;lat;lon;timestamp;P1;durP1;ratioP1;P2;durP2;ratioP2
52434;SDS011;38354;52.892;6.148;2023-04-03T03:01:48;3.72;;;1.17;;
52434;SDS011;38354;52.892;6.148;2023-04-03T03:04:14;3.70;;;1.33;;
52434;SDS011;38354;52.892;6.148;2023-04-03T03:06:40;5.32;;;1.17;;
52434;SDS011;38354;52.892;6.148;2023-04-03T03:09:06;3.30;;;1.30;;
52434;SDS011;38354;52.892;6.148;2023-04-03T03:11:31;4.13;;;1.25;;
52434;SDS011;38354;52.892;6.148;2023-04-03T03:13:57;5.07;;;1.35;;
52434;SDS011;38354;52.892;6.148;2023-04-03T03:16:23;4.80;;;1.73;;
52434;SDS011;38354;52.892;6.148;2023-04-03T03:18:48;2.47;;;1.20;;
52434;SDS011;38354;52.892;6.148;2023-04-03T03:21:14;4.65;;;1.20;;
52434;SDS011;38354;52.892;6.148;2023-04-03T03:23:40;4.07;;;1.42;;
52434;SDS011;38354;52.892;6.148;2023-04-03T03:26:06;3.85;;;1.35;;
52434;SDS011;38354;52.892;6.148;2023-04-03T03:28:35;5.82;;;1.83;;
52434;SDS011;38354;52.892;6.148;2023-04-03T03:31:01;7.18;;;1.63;;
52434;SDS011;38354;52.892;6.148;2023-04-03T03:33:28;4.60;;;1.33;;
52434;SDS011;38354;52.892;6.148;2023-04-03T03:35:54;5.55;;;1.42;;
52434;SDS011;38354;52.892;6.148;2023-04-03T03:38:20;7.38;;;1.73;;
52434;SDS011;38354;52.892;6.148;2023-04-03T03:40:47;4.45;;;1.40;;
52434;SDS011;38354;52.892;6.148;2023-04-03T03:43:13;5.75;;;1.80;;
52434;SDS011;38354;52.892;6.148;2023-04-03T03:45:40;3.67;;;1.45;;
52434;SDS011;38354;52.892;6.148;2023-04-03T03:48:06;4.05;;;1.50;;
52434;SDS011;38354;52.892;6.148;2023-04-03T03:50:31;3.75;;;1.40;;
52434;SDS011;38354;52.892;6.148;2023-04-03T03:52:57;5.10;;;1.50;;
52434;SDS011;38354;52.892;6.148;2023-04-03T03:55:23;3.92;;;1.33;;
52434;SDS011;38354;52.892;6.148;2023-04-03T03:57:48;8.20;;;2.35;;
52434;SDS011;38354;52.892;6.148;2023-04-03T04:00:14;2.55;;;1.23;;
52434;SDS011;38354;52.892;6.148;2023-04-03T04:02:41;5.03;;;1.70;;
52434;SDS011;38354;52.892;6.148;2023-04-03T04:05:07;5.82;;;2.00;;
52434;SDS011;38354;52.892;6.148;2023-04-03T04:07:33;7.25;;;1.58;;
52434;SDS011;38354;52.892;6.148;2023-04-03T04:09:58;9.05;;;1.90;;
52434;SDS011;38354;52.892;6.148;2023-04-03T04:12:24;6.47;;;1.77;;
52434;SDS011;38354;52.892;6.148;2023-04-03T04:14:50;4.03;;;2.15;;
52434;SDS011;38354;52.892;6.148;2023-04-03T04:17:15;5.10;;;1.67;;
52434;SDS011;38354;52.892;6.148;2023-04-03T04:19:42;7.43;;;1.73;;
52434;SDS011;38354;52.892;6.148;2023-04-03T04:22:11;6.57;;;1.75;;
52434;SDS011;38354;52.892;6.148;2023-04-03T04:24:37;5.18;;;1.70;;
52434;SDS011;38354;52.892;6.148;2023-04-03T04:27:02;5.93;;;1.50;;
52434;SDS011;38354;52.892;6.148;2023-04-03T04:29:28;5.78;;;1.55;;
52434;SDS011;38354;52.892;6.148;2023-04-03T04:31:54;6.32;;;1.58;;
52434;SDS011;38354;52.892;6.148;2023-04-03T04:34:19;4.22;;;1.70;;
52434;SDS011;38354;52.892;6.148;2023-04-03T04:36:45;5.85;;;1.88;;
52434;SDS011;38354;52.892;6.148;2023-04-03T04:39:10;7.63;;;2.72;;
52434;SDS011;38354;52.892;6.148;2023-04-03T04:41:36;7.85;;;2.40;;
52434;SDS011;38354;52.892;6.148;2023-04-03T04:44:02;5.30;;;2.10;;
52434;SDS011;38354;52.892;6.148;2023-04-03T04:46:27;4.97;;;1.80;;
52434;SDS011;38354;52.892;6.148;2023-04-03T04:48:53;7.88;;;1.90;;
52434;SDS011;38354;52.892;6.148;2023-04-03T04:51:19;5.15;;;2.08;;
52434;SDS011;38354;52.892;6.148;2023-04-03T04:53:45;9.20;;;2.15;;
52434;SDS011;38354;52.892;6.148;2023-04-03T04:56:10;6.07;;;2.05;;
52434;SDS011;38354;52.892;6.148;2023-04-03T04:58:36;6.60;;;1.92;;
52434;SDS011;38354;52.892;6.148;2023-04-03T05:01:03;5.05;;;2.38;;
52434;SDS011;38354;52.892;6.148;2023-04-03T05:03:33;4.38;;;2.25;;
52434;SDS011;38354;52.892;6.148;2023-04-03T05:05:59;7.47;;;2.30;;
52434;SDS011;38354;52.892;6.148;2023-04-03T05:08:25;7.20;;;2.17;;
52434;SDS011;38354;52.892;6.148;2023-04-03T05:10:51;6.93;;;2.17;;
52434;SDS011;38354;52.892;6.148;2023-04-03T05:13:18;6.30;;;2.10;;
52434;SDS011;38354;52.892;6.148;2023-04-03T05:15:44;8.88;;;2.60;;
52434;SDS011;38354;52.892;6.148;2023-04-03T05:18:10;8.10;;;2.22;;
52434;SDS011;38354;52.892;6.148;2023-04-03T05:20:36;7.97;;;2.92;;
52434;SDS011;38354;52.892;6.148;2023-04-03T05:23:02;7.32;;;2.50;;
52434;SDS011;38354;52.892;6.148;2023-04-03T05:25:28;8.07;;;2.40;;
52434;SDS011;38354;52.892;6.148;2023-04-03T05:27:54;7.85;;;2.65;;
52434;SDS011;38354;52.892;6.148;2023-04-03T05:30:19;7.30;;;2.85;;
52434;SDS011;38354;52.892;6.148;2023-04-03T05:32:45;8.65;;;2.60;;
52434;SDS011;38354;52.892;6.148;2023-04-03T05:35:11;7.53;;;2.55;;
52434;SDS011;38354;52.892;6.148;2023-04-03T05:37:36;10.20;;;2.40;;
52434;SDS011;38354;52.892;6.148;2023-04-03T05:40:03;7.22;;;2.30;;
52434;SDS011;38354;52.892;6.148;2023-04-03T05:42:30;9.38;;;2.08;;
52434;SDS011;38354;52.892;6.148;2023-04-03T05:44:56;7.50;;;2.63;;
52434;SDS011;38354;52.892;6.148;2023-04-03T05:47:21;10.40;;;2.40;;
52434;SDS011;38354;52.892;6.148;2023-04-03T05:49:47;6.95;;;2.75;;
52434;SDS011;38354;52.892;6.148;2023-04-03T05:54:48;11.40;;;3.08;;
52434;SDS011;38354;52.892;6.148;2023-04-03T05:57:15;4.82;;;2.10;;
52434;SDS011;38354;52.892;6.148;2023-04-03T05:59:44;5.22;;;2.45;;
52434;SDS011;38354;52.892;6.148;2023-04-03T06:02:12;10.27;;;2.55;;
52434;SDS011;38354;52.892;6.148;2023-04-03T06:04:39;9.20;;;2.75;;
52434;SDS011;38354;52.892;6.148;2023-04-03T06:07:05;6.20;;;2.58;;
52434;SDS011;38354;52.892;6.148;2023-04-03T06:09:32;5.75;;;2.20;;
52434;SDS011;38354;52.892;6.148;2023-04-03T06:11:58;7.40;;;2.42;;
52434;SDS011;38354;52.892;6.148;2023-04-03T06:14:24;10.77;;;2.85;;
52434;SDS011;38354;52.892;6.148;2023-04-03T06:16:51;4.53;;;2.17;;
52434;SDS011;38354;52.892;6.148;2023-04-03T06:19:17;9.30;;;2.90;;
52434;SDS011;38354;52.892;6.148;2023-04-03T06:21:43;6.28;;;2.35;;
52434;SDS011;38354;52.892;6.148;2023-04-03T06:24:09;10.20;;;3.42;;
52434;SDS011;38354;52.892;6.148;2023-04-03T06:26:38;6.93;;;2.70;;
52434;SDS011;38354;52.892;6.148;2023-04-03T06:29:04;5.28;;;1.90;;
52434;SDS011;38354;52.892;6.148;2023-04-03T06:31:29;5.78;;;2.38;;
52434;SDS011;38354;52.892;6.148;2023-04-03T06:33:55;12.85;;;2.63;;
52434;SDS011;38354;52.892;6.148;2023-04-03T06:36:21;7.88;;;2.42;;
52434;SDS011;38354;52.892;6.148;2023-04-03T06:38:47;7.55;;;2.60;;
52434;SDS011;38354;52.892;6.148;2023-04-03T06:41:13;11.77;;;2.58;;
52434;SDS011;38354;52.892;6.148;2023-04-03T06:43:39;7.15;;;2.30;;
52434;SDS011;38354;52.892;6.148;2023-04-03T06:46:05;9.18;;;2.63;;
52434;SDS011;38354;52.892;6.148;2023-04-03T06:48:31;9.18;;;2.28;;
52434;SDS011;38354;52.892;6.148;2023-04-03T06:50:57;8.25;;;2.05;;
52434;SDS011;38354;52.892;6.148;2023-04-03T06:53:23;8.63;;;2.45;;
52434;SDS011;38354;52.892;6.148;2023-04-03T06:55:48;6.75;;;2.00;;
52434;SDS011;38354;52.892;6.148;2023-04-03T06:58:14;7.88;;;2.58;;
52434;SDS011;38354;52.892;6.148;2023-04-03T07:00:42;6.82;;;1.95;;
52434;SDS011;38354;52.892;6.148;2023-04-03T07:03:08;7.00;;;2.55;;
52434;SDS011;38354;52.892;6.148;2023-04-03T07:05:33;8.88;;;1.95;;
52434;SDS011;38354;52.892;6.148;2023-04-03T07:07:59;8.27;;;2.17;;
52434;SDS011;38354;52.892;6.148;2023-04-03T07:10:25;8.00;;;1.70;;
52434;SDS011;38354;52.892;6.148;2023-04-03T07:12:51;7.93;;;1.75;;
52434;SDS011;38354;52.892;6.148;2023-04-03T07:15:17;7.93;;;1.75;;
52434;SDS011;38354;52.892;6.148;2023-04-03T07:17:43;8.80;;;2.03;;
52434;SDS011;38354;52.892;6.148;2023-04-03T07:20:09;5.68;;;1.60;;
52434;SDS011;38354;52.892;6.148;2023-04-03T07:22:35;4.32;;;1.75;;
52434;SDS011;38354;52.892;6.148;2023-04-03T07:25:01;5.00;;;1.70;;
52434;SDS011;38354;52.892;6.148;2023-04-03T07:27:27;6.70;;;1.60;;
52434;SDS011;38354;52.892;6.148;2023-04-03T07:29:53;4.40;;;1.98;;
52434;SDS011;38354;52.892;6.148;2023-04-03T07:32:20;4.57;;;1.65;;
52434;SDS011;38354;52.892;6.148;2023-04-03T07:34:46;4.82;;;1.70;;
52434;SDS011;38354;52.892;6.148;2023-04-03T07:37:12;5.82;;;1.70;;
52434;SDS011;38354;52.892;6.148;2023-04-03T07:39:37;5.30;;;1.50;;
52434;SDS011;38354;52.892;6.148;2023-04-03T07:42:03;4.75;;;2.03;;
52434;SDS011;38354;52.892;6.148;2023-04-03T07:44:29;7.28;;;1.40;;
52434;SDS011;38354;52.892;6.148;2023-04-03T07:46:55;6.00;;;1.70;;
52434;SDS011;38354;52.892;6.148;2023-04-03T07:49:21;5.25;;;1.77;;
52434;SDS011;38354;52.892;6.148;2023-04-03T07:51:49;5.43;;;1.73;;
52434;SDS011;38354;52.892;6.148;2023-04-03T07:54:14;6.43;;;1.45;;
52434;SDS011;38354;52.892;6.148;2023-04-03T07:56:41;4.95;;;1.38;;
52434;SDS011;38354;52.892;6.148;2023-04-03T07:59:08;6.47;;;1.50;;
52434;SDS011;38354;52.892;6.148;2023-04-03T08:01:35;3.83;;;1.23;;
52434;SDS011;38354;52.892;6.148;2023-04-03T08:04:01;5.57;;;1.90;;
52434;SDS011;38354;52.892;6.148;2023-04-03T08:06:26;4.45;;;1.30;;
52434;SDS011;38354;52.892;6.148;2023-04-03T08:08:55;4.60;;;1.08;;
52434;SDS011;38354;52.892;6.148;2023-04-03T08:11:21;2.85;;;1.00;;
52434;SDS011;38354;52.892;6.148;2023-04-03T08:13:47;4.57;;;1.50;;
52434;SDS011;38354;52.892;6.148;2023-04-03T08:16:16;3.38;;;1.08;;
52434;SDS011;38354;52.892;6.148;2023-04-03T08:18:45;4.88;;;1.20;;
52434;SDS011;38354;52.892;6.148;2023-04-03T08:21:11;2.00;;;0.98;;
52434;SDS011;38354;52.892;6.148;2023-04-03T08:23:37;5.15;;;1.33;;
52434;SDS011;38354;52.892;6.148;2023-04-03T08:26:11;3.63;;;1.00;;
52434;SDS011;38354;52.892;6.148;2023-04-03T08:28:40;4.20;;;1.00;;
52434;SDS011;38354;52.892;6.148;2023-04-03T08:31:08;2.95;;;1.00;;
52434;SDS011;38354;52.892;6.148;2023-04-03T08:33:39;6.00;;;1.17;;
52434;SDS011;38354;52.892;6.148;2023-04-03T08:36:06;4.75;;;1.10;;
52434;SDS011;38354;52.892;6.148;2023-04-03T08:38:33;5.18;;;1.25;;
52434;SDS011;38354;52.892;6.148;2023-04-03T08:43:45;4.03;;;1.27;;
52434;SDS011;38354;52.892;6.148;2023-04-03T08:46:23;6.32;;;1.20;;
52434;SDS011;38354;52.892;6.148;2023-04-03T08:48:57;5.33;;;1.47;;
52434;SDS011;38354;52.892;6.148;2023-04-03T08:51:24;6.20;;;1.25;;
52434;SDS011;38354;52.892;6.148;2023-04-03T08:54:01;5.45;;;1.67;;
52434;SDS011;38354;52.892;6.148;2023-04-03T08:56:33;3.83;;;0.93;;
52434;SDS011;38354;52.892;6.148;2023-04-03T08:59:00;4.00;;;1.10;;
52434;SDS011;38354;52.892;6.148;2023-04-03T09:01:36;3.35;;;0.90;;
52434;SDS011;38354;52.892;6.148;2023-04-03T09:04:14;2.67;;;1.00;;
52434;SDS011;38354;52.892;6.148;2023-04-03T09:06:45;4.53;;;0.93;;
52434;SDS011;38354;52.892;6.148;2023-04-03T09:12:34;4.00;;;1.00;;
52434;SDS011;38354;52.892;6.148;2023-04-03T09:15:02;2.75;;;0.90;;
52434;SDS011;38354;52.892;6.148;2023-04-03T09:17:42;2.50;;;0.80;;
52434;SDS011;38354;52.892;6.148;2023-04-03T09:26:11;3.22;;;0.80;;
52434;SDS011;38354;52.892;6.148;2023-04-03T09:28:44;4.63;;;0.82;;
52434;SDS011;38354;52.892;6.148;2023-04-03T09:33:48;8.25;;;1.58;;
52434;SDS011;38354;52.892;6.148;2023-04-03T09:39:21;2.10;;;0.90;;
52434;SDS011;38354;52.892;6.148;2023-04-03T09:42:02;1.87;;;0.60;;
52434;SDS011;38354;52.892;6.148;2023-04-03T09:44:37;4.25;;;0.70;;
52434;SDS011;38354;52.892;6.148;2023-04-03T09:49:48;3.20;;;0.60;;
52434;SDS011;38354;52.892;6.148;2023-04-03T09:52:22;3.38;;;0.80;;
52434;SDS011;38354;52.892;6.148;2023-04-03T09:54:50;3.28;;;0.80;;
52434;SDS011;38354;52.892;6.148;2023-04-03T09:57:16;2.20;;;0.65;;
52434;SDS011;38354;52.892;6.148;2023-04-03T09:59:46;1.95;;;0.50;;
52434;SDS011;38354;52.892;6.148;2023-04-03T10:04:48;1.98;;;0.50;;
52434;SDS011;38354;52.892;6.148;2023-04-03T10:07:28;2.33;;;0.63;;
52434;SDS011;38354;52.892;6.148;2023-04-03T10:10:02;1.80;;;0.52;;
52434;SDS011;38354;52.892;6.148;2023-04-03T10:16:19;1.85;;;0.60;;
52434;SDS011;38354;52.892;6.148;2023-04-03T10:20:54;4.35;;;0.70;;
52434;SDS011;38354;52.892;6.148;2023-04-03T10:23:39;2.17;;;0.63;;
52434;SDS011;38354;52.892;6.148;2023-04-03T10:26:12;2.38;;;0.60;;
52434;SDS011;38354;52.892;6.148;2023-04-03T10:31:59;1.40;;;0.50;;
52434;SDS011;38354;52.892;6.148;2023-04-03T10:34:33;3.30;;;0.82;;
52434;SDS011;38354;52.892;6.148;2023-04-03T10:42:33;2.15;;;0.68;;
52434;SDS011;38354;52.892;6.148;2023-04-03T10:45:21;3.20;;;1.10;;
52434;SDS011;38354;52.892;6.148;2023-04-03T10:48:04;2.78;;;0.80;;
52434;SDS011;38354;52.892;6.148;2023-04-03T10:56:03;2.03;;;1.13;;
52434;SDS011;38354;52.892;6.148;2023-04-03T10:58:43;2.33;;;0.80;;
52434;SDS011;38354;52.892;6.148;2023-04-03T11:01:16;2.78;;;0.55;;
52434;SDS011;38354;52.892;6.148;2023-04-03T11:03:48;2.60;;;0.68;;
52434;SDS011;38354;52.892;6.148;2023-04-03T11:06:18;3.30;;;0.68;;
52434;SDS011;38354;52.892;6.148;2023-04-03T11:08:48;3.47;;;0.70;;
52434;SDS011;38354;52.892;6.148;2023-04-03T11:11:40;2.70;;;0.55;;
52434;SDS011;38354;52.892;6.148;2023-04-03T11:14:13;3.47;;;0.90;;
52434;SDS011;38354;52.892;6.148;2023-04-03T11:17:04;3.35;;;0.80;;
52434;SDS011;38354;52.892;6.148;2023-04-03T11:19:52;4.78;;;0.88;;
52434;SDS011;38354;52.892;6.148;2023-04-03T11:22:45;2.35;;;0.60;;
52434;SDS011;38354;52.892;6.148;2023-04-03T11:25:23;2.72;;;0.60;;
52434;SDS011;38354;52.892;6.148;2023-04-03T11:27:55;3.42;;;0.85;;
52434;SDS011;38354;52.892;6.148;2023-04-03T11:30:32;2.97;;;0.73;;
52434;SDS011;38354;52.892;6.148;2023-04-03T11:33:18;2.90;;;0.80;;
52434;SDS011;38354;52.892;6.148;2023-04-03T11:35:54;3.22;;;1.10;;
52434;SDS011;38354;52.892;6.148;2023-04-03T11:38:29;3.78;;;0.80;;
52434;SDS011;38354;52.892;6.148;2023-04-03T11:40:59;2.40;;;0.85;;
52434;SDS011;38354;52.892;6.148;2023-04-03T11:43:30;2.47;;;0.70;;
52434;SDS011;38354;52.892;6.148;2023-04-03T11:46:00;2.88;;;0.70;;
52434;SDS011;38354;52.892;6.148;2023-04-03T11:51:43;3.28;;;0.80;;
52434;SDS011;38354;52.892;6.148;2023-04-03T12:08:44;2.17;;;0.60;;
52434;SDS011;38354;52.892;6.148;2023-04-03T12:13:38;3.53;;;0.70;;
52434;SDS011;38354;52.892;6.148;2023-04-03T12:16:24;3.33;;;0.95;;
52434;SDS011;38354;52.892;6.148;2023-04-03T12:19:04;2.53;;;0.80;;
52434;SDS011;38354;52.892;6.148;2023-04-03T12:34:42;3.35;;;0.95;;
52434;SDS011;38354;52.892;6.148;2023-04-03T12:37:40;3.28;;;0.82;;
52434;SDS011;38354;52.892;6.148;2023-04-03T12:40:18;4.20;;;1.00;;
52434;SDS011;38354;52.892;6.148;2023-04-03T12:43:16;4.25;;;1.10;;
52434;SDS011;38354;52.892;6.148;2023-04-03T12:46:14;4.88;;;1.00;;
52434;SDS011;38354;52.892;6.148;2023-04-03T12:57:16;3.67;;;0.90;;
52434;SDS011;38354;52.892;6.148;2023-04-03T12:59:43;5.43;;;1.00;;
52434;SDS011;38354;52.892;6.148;2023-04-03T13:02:17;5.00;;;1.00;;
52434;SDS011;38354;52.892;6.148;2023-04-03T13:04:46;3.05;;;0.95;;
52434;SDS011;38354;52.892;6.148;2023-04-03T13:07:29;4.47;;;1.30;;
52434;SDS011;38354;52.892;6.148;2023-04-03T13:15:16;6.10;;;1.23;;
52434;SDS011;38354;52.892;6.148;2023-04-03T13:17:43;3.72;;;1.10;;
52434;SDS011;38354;52.892;6.148;2023-04-03T13:20:10;4.25;;;0.93;;
52434;SDS011;38354;52.892;6.148;2023-04-03T13:22:46;2.95;;;0.88;;
52434;SDS011;38354;52.892;6.148;2023-04-03T13:25:22;2.20;;;0.93;;
52434;SDS011;38354;52.892;6.148;2023-04-03T13:27:49;3.83;;;1.08;;
52434;SDS011;38354;52.892;6.148;2023-04-03T13:32:53;3.70;;;1.08;;
52434;SDS011;38354;52.892;6.148;2023-04-03T13:35:40;2.00;;;0.82;;
52434;SDS011;38354;52.892;6.148;2023-04-03T13:38:28;3.38;;;1.20;;
52434;SDS011;38354;52.892;6.148;2023-04-03T13:40:57;2.95;;;1.00;;
52434;SDS011;38354;52.892;6.148;2023-04-03T13:43:30;3.20;;;1.10;;
52434;SDS011;38354;52.892;6.148;2023-04-03T13:46:03;2.40;;;1.02;;
52434;SDS011;38354;52.892;6.148;2023-04-03T13:48:46;3.50;;;1.20;;
52434;SDS011;38354;52.892;6.148;2023-04-03T13:56:16;4.35;;;1.42;;
52434;SDS011;38354;52.892;6.148;2023-04-03T13:58:52;4.03;;;1.40;;
52434;SDS011;38354;52.892;6.148;2023-04-03T14:01:24;2.97;;;1.05;;
52434;SDS011;38354;52.892;6.148;2023-04-03T14:06:23;3.58;;;1.02;;
52434;SDS011;38354;52.892;6.148;2023-04-03T14:08:50;2.08;;;1.10;;
52434;SDS011;38354;52.892;6.148;2023-04-03T14:11:28;5.10;;;1.40;;
52434;SDS011;38354;52.892;6.148;2023-04-03T14:13:55;3.55;;;1.20;;
52434;SDS011;38354;52.892;6.148;2023-04-03T14:16:26;3.28;;;1.30;;
52434;SDS011;38354;52.892;6.148;2023-04-03T14:18:55;5.68;;;1.25;;
52434;SDS011;38354;52.892;6.148;2023-04-03T14:21:21;4.38;;;1.20;;
52434;SDS011;38354;52.892;6.148;2023-04-03T14:23:48;6.03;;;1.17;;
52434;SDS011;38354;52.892;6.148;2023-04-03T14:26:19;4.55;;;1.40;;
52434;SDS011;38354;52.892;6.148;2023-04-03T14:28:47;3.58;;;1.23;;
52434;SDS011;38354;52.892;6.148;2023-04-03T14:31:16;4.35;;;2.05;;
52434;SDS011;38354;52.892;6.148;2023-04-03T14:33:43;3.10;;;1.10;;
52434;SDS011;38354;52.892;6.148;2023-04-03T14:38:42;2.33;;;1.00;;
52434;SDS011;38354;52.892;6.148;2023-04-03T14:41:12;4.68;;;1.20;;
52434;SDS011;38354;52.892;6.148;2023-04-03T14:43:39;3.88;;;1.40;;
52434;SDS011;38354;52.892;6.148;2023-04-03T14:46:05;2.92;;;1.52;;
52434;SDS011;38354;52.892;6.148;2023-04-03T14:48:36;3.05;;;1.10;;
52434;SDS011;38354;52.892;6.148;2023-04-03T14:51:01;4.60;;;1.50;;
52434;SDS011;38354;52.892;6.148;2023-04-03T14:56:08;3.55;;;1.30;;
52434;SDS011;38354;52.892;6.148;2023-04-03T14:58:37;4.43;;;1.40;;
52434;SDS011;38354;52.892;6.148;2023-04-03T15:01:03;4.35;;;1.30;;
52434;SDS011;38354;52.892;6.148;2023-04-03T15:03:28;5.57;;;1.75;;
52434;SDS011;38354;52.892;6.148;2023-04-03T15:05:54;3.38;;;1.40;;
52434;SDS011;38354;52.892;6.148;2023-04-03T15:08:24;4.40;;;1.52;;
52434;SDS011;38354;52.892;6.148;2023-04-03T15:10:52;4.43;;;1.45;;
52434;SDS011;38354;52.892;6.148;2023-04-03T15:13:18;4.00;;;1.70;;
52434;SDS011;38354;52.892;6.148;2023-04-03T15:15:45;3.60;;;1.50;;
52434;SDS011;38354;52.892;6.148;2023-04-03T15:18:14;3.03;;;1.40;;
52434;SDS011;38354;52.892;6.148;2023-04-03T15:20:45;4.28;;;1.10;;
52434;SDS011;38354;52.892;6.148;2023-04-03T15:23:12;4.18;;;1.27;;
52434;SDS011;38354;52.892;6.148;2023-04-03T15:25:40;3.33;;;1.17;;
52434;SDS011;38354;52.892;6.148;2023-04-03T15:28:08;3.00;;;1.23;;
52434;SDS011;38354;52.892;6.148;2023-04-03T15:30:55;4.43;;;1.30;;
52434;SDS011;38354;52.892;6.148;2023-04-03T15:33:21;4.47;;;1.58;;
52434;SDS011;38354;52.892;6.148;2023-04-03T15:35:47;3.90;;;1.30;;
52434;SDS011;38354;52.892;6.148;2023-04-03T15:38:12;2.92;;;1.40;;
52434;SDS011;38354;52.892;6.148;2023-04-03T15:40:38;2.50;;;1.05;;
52434;SDS011;38354;52.892;6.148;2023-04-03T15:43:04;4.90;;;1.20;;
52434;SDS011;38354;52.892;6.148;2023-04-03T15:45:31;3.78;;;1.35;;
52434;SDS011;38354;52.892;6.148;2023-04-03T15:47:58;4.03;;;1.20;;
52434;SDS011;38354;52.892;6.148;2023-04-03T15:50:24;5.00;;;1.63;;
52434;SDS011;38354;52.892;6.148;2023-04-03T15:52:50;3.33;;;1.08;;
52434;SDS011;38354;52.892;6.148;2023-04-03T15:55:22;3.50;;;1.00;;
52434;SDS011;38354;52.892;6.148;2023-04-03T15:57:52;4.78;;;1.23;;
52434;SDS011;38354;52.892;6.148;2023-04-03T16:00:19;2.95;;;0.90;;
52434;SDS011;38354;52.892;6.148;2023-04-03T16:02:46;3.45;;;1.10;;
52434;SDS011;38354;52.892;6.148;2023-04-03T16:05:13;3.95;;;1.25;;
52434;SDS011;38354;52.892;6.148;2023-04-03T16:07:42;3.63;;;1.05;;
52434;SDS011;38354;52.892;6.148;2023-04-03T16:10:08;2.92;;;1.23;;
52434;SDS011;38354;52.892;6.148;2023-04-03T16:12:35;2.17;;;1.00;;
52434;SDS011;38354;52.892;6.148;2023-04-03T16:15:02;2.13;;;1.00;;
52434;SDS011;38354;52.892;6.148;2023-04-03T16:17:28;2.70;;;1.13;;
52434;SDS011;38354;52.892;6.148;2023-04-03T16:19:55;3.13;;;0.85;;
52434;SDS011;38354;52.892;6.148;2023-04-03T16:22:21;3.33;;;1.05;;
52434;SDS011;38354;52.892;6.148;2023-04-03T16:24:48;4.25;;;1.17;;
52434;SDS011;38354;52.892;6.148;2023-04-03T16:27:14;3.92;;;1.10;;
52434;SDS011;38354;52.892;6.148;2023-04-03T16:29:40;3.83;;;1.00;;
52434;SDS011;38354;52.892;6.148;2023-04-03T16:32:06;3.75;;;1.00;;
52434;SDS011;38354;52.892;6.148;2023-04-03T16:34:32;5.28;;;1.40;;
52434;SDS011;38354;52.892;6.148;2023-04-03T16:36:58;3.63;;;1.08;;
52434;SDS011;38354;52.892;6.148;2023-04-03T16:39:24;2.75;;;1.13;;
52434;SDS011;38354;52.892;6.148;2023-04-03T16:41:49;3.15;;;0.93;;
52434;SDS011;38354;52.892;6.148;2023-04-03T16:44:15;2.65;;;1.15;;
52434;SDS011;38354;52.892;6.148;2023-04-03T16:46:41;2.63;;;0.98;;
52434;SDS011;38354;52.892;6.148;2023-04-03T16:49:06;2.38;;;0.82;;
52434;SDS011;38354;52.892;6.148;2023-04-03T16:51:32;3.03;;;1.13;;
52434;SDS011;38354;52.892;6.148;2023-04-03T16:53:58;4.15;;;1.10;;
52434;SDS011;38354;52.892;6.148;2023-04-03T16:56:24;3.35;;;1.35;;
52434;SDS011;38354;52.892;6.148;2023-04-03T16:58:51;3.92;;;1.20;;
52434;SDS011;38354;52.892;6.148;2023-04-03T17:01:18;2.60;;;1.02;;
52434;SDS011;38354;52.892;6.148;2023-04-03T17:03:46;4.80;;;1.40;;
52434;SDS011;38354;52.892;6.148;2023-04-03T17:06:15;5.40;;;1.40;;
52434;SDS011;38354;52.892;6.148;2023-04-03T17:08:43;2.85;;;0.98;;
52434;SDS011;38354;52.892;6.148;2023-04-03T17:11:11;2.53;;;1.05;;
52434;SDS011;38354;52.892;6.148;2023-04-03T17:13:36;2.58;;;1.23;;
52434;SDS011;38354;52.892;6.148;2023-04-03T17:16:02;3.42;;;1.10;;
52434;SDS011;38354;52.892;6.148;2023-04-03T17:18:31;3.15;;;1.13;;
52434;SDS011;38354;52.892;6.148;2023-04-03T17:20:57;4.40;;;1.42;;
52434;SDS011;38354;52.892;6.148;2023-04-03T17:23:24;2.53;;;1.02;;
52434;SDS011;38354;52.892;6.148;2023-04-03T17:25:51;4.88;;;1.80;;
52434;SDS011;38354;52.892;6.148;2023-04-03T17:28:19;3.00;;;1.10;;
52434;SDS011;38354;52.892;6.148;2023-04-03T17:30:46;3.22;;;1.15;;
52434;SDS011;38354;52.892;6.148;2023-04-03T17:33:12;2.63;;;1.30;;
52434;SDS011;38354;52.892;6.148;2023-04-03T17:35:38;4.65;;;1.50;;
52434;SDS011;38354;52.892;6.148;2023-04-03T17:38:04;7.07;;;2.53;;
52434;SDS011;38354;52.892;6.148;2023-04-03T17:40:29;3.88;;;1.23;;
52434;SDS011;38354;52.892;6.148;2023-04-03T17:42:55;3.22;;;1.17;;
52434;SDS011;38354;52.892;6.148;2023-04-03T17:45:20;4.43;;;1.55;;
52434;SDS011;38354;52.892;6.148;2023-04-03T17:47:46;3.58;;;1.38;;
52434;SDS011;38354;52.892;6.148;2023-04-03T17:50:14;3.60;;;1.30;;
52434;SDS011;38354;52.892;6.148;2023-04-03T17:52:40;3.20;;;1.20;;
52434;SDS011;38354;52.892;6.148;2023-04-03T17:55:06;3.85;;;1.10;;
52434;SDS011;38354;52.892;6.148;2023-04-03T17:57:31;4.05;;;1.42;;
52434;SDS011;38354;52.892;6.148;2023-04-03T17:59:57;4.10;;;1.10;;
52434;SDS011;38354;52.892;6.148;2023-04-03T18:02:23;2.42;;;1.10;;
52434;SDS011;38354;52.892;6.148;2023-04-03T18:04:52;4.90;;;1.02;;
52434;SDS011;38354;52.892;6.148;2023-04-03T18:07:18;4.45;;;1.23;;
52434;SDS011;38354;52.892;6.148;2023-04-03T18:09:45;3.55;;;1.00;;
52434;SDS011;38354;52.892;6.148;2023-04-03T18:12:11;2.40;;;0.75;;
52434;SDS011;38354;52.892;6.148;2023-04-03T18:14:38;2.45;;;0.80;;
52434;SDS011;38354;52.892;6.148;2023-04-03T18:17:05;4.68;;;1.05;;
52434;SDS011;38354;52.892;6.148;2023-04-03T18:19:31;2.60;;;0.90;;
52434;SDS011;38354;52.892;6.148;2023-04-03T18:21:59;2.42;;;0.88;;
52434;SDS011;38354;52.892;6.148;2023-04-03T18:24:27;2.50;;;0.88;;
52434;SDS011;38354;52.892;6.148;2023-04-03T18:26:57;2.45;;;0.85;;
52434;SDS011;38354;52.892;6.148;2023-04-03T18:29:27;1.90;;;0.90;;
52434;SDS011;38354;52.892;6.148;2023-04-03T18:31:54;2.63;;;0.75;;
52434;SDS011;38354;52.892;6.148;2023-04-03T18:34:20;4.07;;;0.90;;
52434;SDS011;38354;52.892;6.148;2023-04-03T18:36:46;5.00;;;1.25;;
52434;SDS011;38354;52.892;6.148;2023-04-03T18:39:13;3.95;;;1.08;;
52434;SDS011;38354;52.892;6.148;2023-04-03T18:41:38;2.85;;;1.10;;
52434;SDS011;38354;52.892;6.148;2023-04-03T18:44:06;4.18;;;1.17;;
52434;SDS011;38354;52.892;6.148;2023-04-03T18:46:34;5.00;;;1.20;;
52434;SDS011;38354;52.892;6.148;2023-04-03T18:49:01;5.45;;;1.25;;
52434;SDS011;38354;52.892;6.148;2023-04-03T18:51:27;4.10;;;1.10;;
52434;SDS011;38354;52.892;6.148;2023-04-03T18:53:54;4.18;;;1.10;;
52434;SDS011;38354;52.892;6.148;2023-04-03T18:56:20;4.18;;;1.13;;
52434;SDS011;38354;52.892;6.148;2023-04-03T18:58:46;5.38;;;1.40;;
52434;SDS011;38354;52.892;6.148;2023-04-03T19:01:12;5.25;;;1.77;;
52434;SDS011;38354;52.892;6.148;2023-04-03T19:03:38;6.78;;;1.27;;
52434;SDS011;38354;52.892;6.148;2023-04-03T19:06:04;7.03;;;1.55;;
52434;SDS011;38354;52.892;6.148;2023-04-03T19:08:31;4.15;;;1.50;;
52434;SDS011;38354;52.892;6.148;2023-04-03T19:10:57;4.57;;;1.60;;
52434;SDS011;38354;52.892;6.148;2023-04-03T19:13:23;7.18;;;1.80;;
52434;SDS011;38354;52.892;6.148;2023-04-03T19:15:50;4.25;;;1.50;;
52434;SDS011;38354;52.892;6.148;2023-04-03T19:18:16;3.97;;;1.30;;
52434;SDS011;38354;52.892;6.148;2023-04-03T19:20:42;6.70;;;1.42;;
52434;SDS011;38354;52.892;6.148;2023-04-03T19:23:07;4.28;;;1.58;;
52434;SDS011;38354;52.892;6.148;2023-04-03T19:25:33;3.15;;;1.38;;
52434;SDS011;38354;52.892;6.148;2023-04-03T19:28:00;5.68;;;1.42;;
52434;SDS011;38354;52.892;6.148;2023-04-03T19:30:25;4.85;;;1.60;;
52434;SDS011;38354;52.892;6.148;2023-04-03T19:32:51;5.93;;;1.50;;
52434;SDS011;38354;52.892;6.148;2023-04-03T19:35:17;4.10;;;1.20;;
52434;SDS011;38354;52.892;6.148;2023-04-03T19:37:42;5.13;;;1.77;;
52434;SDS011;38354;52.892;6.148;2023-04-03T19:40:10;5.32;;;1.30;;
52434;SDS011;38354;52.892;6.148;2023-04-03T19:42:36;6.13;;;1.50;;
52434;SDS011;38354;52.892;6.148;2023-04-03T19:45:06;2.78;;;1.10;;